sensor_id;sensor_type;location;lat;lon;timestamp;P1;durP1;ratioP1;P2;durP2;ratioP2
20713;SDS011;10518;50.742;4.226;2023-07-09T00:01:55;5.32;;;2.38;;
20713;SDS011;10518;50.742;4.226;2023-07-09T00:04:21;8.98;;;3.50;;
20713;SDS011;10518;50.742;4.226;2023-07-09T00:06:47;4.57;;;2.33;;
20713;SDS011;10518;50.742;4.226;2023-07-09T00:09:16;3.30;;;2.10;;
20713;SDS011;10518;50.742;4.226;2023-07-09T00:11:44;7.80;;;3.10;;
20713;SDS011;10518;50.742;4.226;2023-07-09T00:14:10;9.52;;;2.20;;
20713;SDS011;10518;50.742;4.226;2023-07-09T00:16:37;3.85;;;2.50;;
20713;SDS011;10518;50.742;4.226;2023-07-09T00:19:14;3.17;;;2.25;;
20713;SDS011;10518;50.742;4.226;2023-07-09T00:21:44;3.63;;;2.30;;
20713;SDS011;10518;50.742;4.226;2023-07-09T00:24:11;4.22;;;2.22;;
20713;SDS011;10518;50.742;4.226;2023-07-09T00:26:37;8.65;;;2.30;;
20713;SDS011;10518;50.742;4.226;2023-07-09T00:29:07;3.53;;;2.25;;
20713;SDS011;10518;50.742;4.226;2023-07-09T00:31:37;3.85;;;2.30;;
20713;SDS011;10518;50.742;4.226;2023-07-09T00:34:09;3.33;;;2.63;;
20713;SDS011;10518;50.742;4.226;2023-07-09T00:36:38;5.15;;;3.05;;
20713;SDS011;10518;50.742;4.226;2023-07-09T00:39:10;4.10;;;2.85;;
20713;SDS011;10518;50.742;4.226;2023-07-09T00:41:44;3.60;;;2.25;;
20713;SDS011;10518;50.742;4.226;2023-07-09T00:49:37;8.18;;;2.53;;
20713;SDS011;10518;50.742;4.226;2023-07-09T00:52:16;5.15;;;2.50;;
20713;SDS011;10518;50.742;4.226;2023-07-09T00:54:47;4.38;;;2.20;;
20713;SDS011;10518;50.742;4.226;2023-07-09T00:57:17;5.38;;;2.30;;
20713;SDS011;10518;50.742;4.226;2023-07-09T00:59:45;3.05;;;2.15;;
20713;SDS011;10518;50.742;4.226;2023-07-09T01:02:14;5.32;;;2.50;;
20713;SDS011;10518;50.742;4.226;2023-07-09T01:04:40;5.13;;;2.90;;
20713;SDS011;10518;50.742;4.226;2023-07-09T01:07:06;4.32;;;1.98;;
20713;SDS011;10518;50.742;4.226;2023-07-09T01:09:32;4.22;;;2.53;;
20713;SDS011;10518;50.742;4.226;2023-07-09T01:12:01;6.00;;;2.28;;
20713;SDS011;10518;50.742;4.226;2023-07-09T01:14:30;4.50;;;2.30;;
20713;SDS011;10518;50.742;4.226;2023-07-09T01:16:59;9.07;;;3.63;;
20713;SDS011;10518;50.742;4.226;2023-07-09T01:19:28;3.00;;;1.98;;
20713;SDS011;10518;50.742;4.226;2023-07-09T01:21:58;3.50;;;2.28;;
20713;SDS011;10518;50.742;4.226;2023-07-09T01:27:24;13.52;;;2.17;;
20713;SDS011;10518;50.742;4.226;2023-07-09T01:29:53;4.28;;;2.60;;
20713;SDS011;10518;50.742;4.226;2023-07-09T01:32:20;3.85;;;2.20;;
20713;SDS011;10518;50.742;4.226;2023-07-09T01:34:47;4.13;;;2.38;;
20713;SDS011;10518;50.742;4.226;2023-07-09T01:37:15;3.40;;;2.30;;
20713;SDS011;10518;50.742;4.226;2023-07-09T01:39:42;4.10;;;2.33;;
20713;SDS011;10518;50.742;4.226;2023-07-09T01:42:08;5.00;;;2.78;;
20713;SDS011;10518;50.742;4.226;2023-07-09T01:44:34;7.53;;;2.38;;
20713;SDS011;10518;50.742;4.226;2023-07-09T01:47:01;2.88;;;2.30;;
20713;SDS011;10518;50.742;4.226;2023-07-09T01:49:29;2.65;;;1.90;;
20713;SDS011;10518;50.742;4.226;2023-07-09T01:51:58;4.32;;;2.08;;
20713;SDS011;10518;50.742;4.226;2023-07-09T01:54:27;4.00;;;1.98;;
20713;SDS011;10518;50.742;4.226;2023-07-09T01:57:12;5.70;;;2.38;;
20713;SDS011;10518;50.742;4.226;2023-07-09T01:59:39;2.85;;;2.00;;
20713;SDS011;10518;50.742;4.226;2023-07-09T02:02:06;4.28;;;2.10;;
20713;SDS011;10518;50.742;4.226;2023-07-09T02:04:33;4.40;;;2.17;;
20713;SDS011;10518;50.742;4.226;2023-07-09T02:06:59;4.07;;;2.22;;
20713;SDS011;10518;50.742;4.226;2023-07-09T02:09:24;3.35;;;2.22;;
20713;SDS011;10518;50.742;4.226;2023-07-09T02:11:50;3.92;;;2.00;;
20713;SDS011;10518;50.742;4.226;2023-07-09T02:14:16;5.15;;;2.72;;
20713;SDS011;10518;50.742;4.226;2023-07-09T02:16:41;5.97;;;2.65;;
20713;SDS011;10518;50.742;4.226;2023-07-09T02:19:08;4.82;;;2.72;;
20713;SDS011;10518;50.742;4.226;2023-07-09T02:21:34;2.92;;;1.85;;
20713;SDS011;10518;50.742;4.226;2023-07-09T02:23:59;6.30;;;2.22;;
20713;SDS011;10518;50.742;4.226;2023-07-09T02:26:25;10.90;;;2.63;;
20713;SDS011;10518;50.742;4.226;2023-07-09T02:28:51;4.07;;;2.60;;
20713;SDS011;10518;50.742;4.226;2023-07-09T02:31:16;4.45;;;2.28;;
20713;SDS011;10518;50.742;4.226;2023-07-09T02:33:42;6.88;;;2.20;;
20713;SDS011;10518;50.742;4.226;2023-07-09T02:36:08;4.38;;;2.17;;
20713;SDS011;10518;50.742;4.226;2023-07-09T02:38:33;3.13;;;2.38;;
20713;SDS011;10518;50.742;4.226;2023-07-09T02:40:59;5.75;;;2.25;;
20713;SDS011;10518;50.742;4.226;2023-07-09T02:43:24;5.82;;;2.03;;
20713;SDS011;10518;50.742;4.226;2023-07-09T02:45:50;2.97;;;2.20;;
20713;SDS011;10518;50.742;4.226;2023-07-09T02:48:15;2.40;;;1.90;;
20713;SDS011;10518;50.742;4.226;2023-07-09T02:50:41;3.30;;;2.53;;
20713;SDS011;10518;50.742;4.226;2023-07-09T02:53:06;5.18;;;2.78;;
20713;SDS011;10518;50.742;4.226;2023-07-09T02:55:32;5.32;;;2.13;;
20713;SDS011;10518;50.742;4.226;2023-07-09T02:57:59;5.85;;;2.67;;
20713;SDS011;10518;50.742;4.226;2023-07-09T03:00:25;8.30;;;2.30;;
20713;SDS011;10518;50.742;4.226;2023-07-09T03:02:50;3.88;;;2.30;;
20713;SDS011;10518;50.742;4.226;2023-07-09T03:05:16;3.80;;;2.10;;
20713;SDS011;10518;50.742;4.226;2023-07-09T03:07:41;5.30;;;2.60;;
20713;SDS011;10518;50.742;4.226;2023-07-09T03:10:07;4.82;;;2.13;;
20713;SDS011;10518;50.742;4.226;2023-07-09T03:12:33;3.22;;;2.05;;
20713;SDS011;10518;50.742;4.226;2023-07-09T03:14:58;4.20;;;2.28;;
20713;SDS011;10518;50.742;4.226;2023-07-09T03:17:24;3.35;;;2.28;;
20713;SDS011;10518;50.742;4.226;2023-07-09T03:19:50;3.35;;;1.90;;
20713;SDS011;10518;50.742;4.226;2023-07-09T03:22:16;3.25;;;2.25;;
20713;SDS011;10518;50.742;4.226;2023-07-09T03:24:41;3.20;;;2.47;;
20713;SDS011;10518;50.742;4.226;2023-07-09T03:27:07;3.67;;;2.00;;
20713;SDS011;10518;50.742;4.226;2023-07-09T03:29:34;3.30;;;2.00;;
20713;SDS011;10518;50.742;4.226;2023-07-09T03:31:59;6.07;;;2.40;;
20713;SDS011;10518;50.742;4.226;2023-07-09T03:34:25;5.03;;;2.00;;
20713;SDS011;10518;50.742;4.226;2023-07-09T03:36:51;2.80;;;2.05;;
20713;SDS011;10518;50.742;4.226;2023-07-09T03:39:16;4.30;;;2.58;;
20713;SDS011;10518;50.742;4.226;2023-07-09T03:41:42;4.72;;;2.05;;
20713;SDS011;10518;50.742;4.226;2023-07-09T03:44:07;5.60;;;2.75;;
20713;SDS011;10518;50.742;4.226;2023-07-09T03:46:33;5.00;;;2.00;;
20713;SDS011;10518;50.742;4.226;2023-07-09T03:48:59;5.25;;;2.60;;
20713;SDS011;10518;50.742;4.226;2023-07-09T03:51:25;8.63;;;2.63;;
20713;SDS011;10518;50.742;4.226;2023-07-09T03:53:50;3.03;;;2.28;;
20713;SDS011;10518;50.742;4.226;2023-07-09T03:56:16;3.88;;;1.90;;
20713;SDS011;10518;50.742;4.226;2023-07-09T03:58:42;3.28;;;2.08;;
20713;SDS011;10518;50.742;4.226;2023-07-09T04:01:07;6.93;;;2.75;;
20713;SDS011;10518;50.742;4.226;2023-07-09T04:03:33;4.18;;;2.08;;
20713;SDS011;10518;50.742;4.226;2023-07-09T04:05:58;4.78;;;2.33;;
20713;SDS011;10518;50.742;4.226;2023-07-09T04:08:24;4.25;;;2.58;;
20713;SDS011;10518;50.742;4.226;2023-07-09T04:10:53;4.38;;;2.47;;
20713;SDS011;10518;50.742;4.226;2023-07-09T04:13:21;5.82;;;2.20;;
20713;SDS011;10518;50.742;4.226;2023-07-09T04:15:47;3.65;;;2.40;;
20713;SDS011;10518;50.742;4.226;2023-07-09T04:18:13;6.63;;;2.70;;
20713;SDS011;10518;50.742;4.226;2023-07-09T04:20:38;3.17;;;1.90;;
20713;SDS011;10518;50.742;4.226;2023-07-09T04:23:05;4.63;;;2.28;;
20713;SDS011;10518;50.742;4.226;2023-07-09T04:25:31;4.72;;;2.67;;
20713;SDS011;10518;50.742;4.226;2023-07-09T04:27:56;5.22;;;2.45;;
20713;SDS011;10518;50.742;4.226;2023-07-09T04:30:22;4.93;;;2.25;;
20713;SDS011;10518;50.742;4.226;2023-07-09T04:32:48;3.35;;;2.13;;
20713;SDS011;10518;50.742;4.226;2023-07-09T04:35:14;2.70;;;1.80;;
20713;SDS011;10518;50.742;4.226;2023-07-09T04:37:40;5.53;;;2.72;;
20713;SDS011;10518;50.742;4.226;2023-07-09T04:40:06;3.58;;;2.10;;
20713;SDS011;10518;50.742;4.226;2023-07-09T04:42:35;2.63;;;2.03;;
20713;SDS011;10518;50.742;4.226;2023-07-09T04:45:02;4.55;;;2.67;;
20713;SDS011;10518;50.742;4.226;2023-07-09T04:47:28;4.20;;;2.88;;
20713;SDS011;10518;50.742;4.226;2023-07-09T04:49:54;3.33;;;2.28;;
20713;SDS011;10518;50.742;4.226;2023-07-09T04:52:19;10.15;;;2.90;;
20713;SDS011;10518;50.742;4.226;2023-07-09T04:54:47;3.85;;;2.17;;
20713;SDS011;10518;50.742;4.226;2023-07-09T04:57:12;3.72;;;2.03;;
20713;SDS011;10518;50.742;4.226;2023-07-09T04:59:38;4.35;;;2.10;;
20713;SDS011;10518;50.742;4.226;2023-07-09T05:02:03;2.97;;;2.17;;
20713;SDS011;10518;50.742;4.226;2023-07-09T05:04:30;4.63;;;2.33;;
20713;SDS011;10518;50.742;4.226;2023-07-09T05:06:56;4.78;;;2.42;;
20713;SDS011;10518;50.742;4.226;2023-07-09T05:09:22;5.55;;;2.28;;
20713;SDS011;10518;50.742;4.226;2023-07-09T05:11:48;7.22;;;2.35;;
20713;SDS011;10518;50.742;4.226;2023-07-09T05:14:14;2.83;;;2.00;;
20713;SDS011;10518;50.742;4.226;2023-07-09T05:16:40;3.38;;;2.45;;
20713;SDS011;10518;50.742;4.226;2023-07-09T05:19:07;4.00;;;2.65;;
20713;SDS011;10518;50.742;4.226;2023-07-09T05:21:33;6.15;;;2.50;;
20713;SDS011;10518;50.742;4.226;2023-07-09T05:23:59;3.40;;;2.35;;
20713;SDS011;10518;50.742;4.226;2023-07-09T05:26:25;3.97;;;2.22;;
20713;SDS011;10518;50.742;4.226;2023-07-09T05:28:50;5.80;;;2.13;;
20713;SDS011;10518;50.742;4.226;2023-07-09T05:31:16;5.15;;;3.08;;
20713;SDS011;10518;50.742;4.226;2023-07-09T05:33:42;6.63;;;2.83;;
20713;SDS011;10518;50.742;4.226;2023-07-09T05:36:08;4.25;;;2.20;;
20713;SDS011;10518;50.742;4.226;2023-07-09T05:38:40;4.53;;;2.10;;
20713;SDS011;10518;50.742;4.226;2023-07-09T05:41:10;2.70;;;2.10;;
20713;SDS011;10518;50.742;4.226;2023-07-09T05:43:36;4.40;;;2.70;;
20713;SDS011;10518;50.742;4.226;2023-07-09T05:46:02;5.18;;;2.45;;
20713;SDS011;10518;50.742;4.226;2023-07-09T05:48:29;4.78;;;2.70;;
20713;SDS011;10518;50.742;4.226;2023-07-09T05:50:55;6.85;;;2.55;;
20713;SDS011;10518;50.742;4.226;2023-07-09T05:53:21;4.50;;;2.38;;
20713;SDS011;10518;50.742;4.226;2023-07-09T05:55:47;4.60;;;2.30;;
20713;SDS011;10518;50.742;4.226;2023-07-09T05:58:12;5.88;;;2.33;;
20713;SDS011;10518;50.742;4.226;2023-07-09T06:00:38;3.55;;;2.53;;
20713;SDS011;10518;50.742;4.226;2023-07-09T06:03:06;6.70;;;2.20;;
20713;SDS011;10518;50.742;4.226;2023-07-09T06:05:33;5.55;;;3.03;;
20713;SDS011;10518;50.742;4.226;2023-07-09T06:07:59;5.82;;;3.03;;
20713;SDS011;10518;50.742;4.226;2023-07-09T06:10:24;5.47;;;3.60;;
20713;SDS011;10518;50.742;4.226;2023-07-09T06:12:50;7.00;;;4.53;;
20713;SDS011;10518;50.742;4.226;2023-07-09T06:15:16;7.75;;;4.47;;
20713;SDS011;10518;50.742;4.226;2023-07-09T06:17:41;13.00;;;5.00;;
20713;SDS011;10518;50.742;4.226;2023-07-09T06:20:07;7.80;;;5.20;;
20713;SDS011;10518;50.742;4.226;2023-07-09T06:22:34;7.75;;;5.22;;
20713;SDS011;10518;50.742;4.226;2023-07-09T06:24:59;7.70;;;4.50;;
20713;SDS011;10518;50.742;4.226;2023-07-09T06:27:25;9.75;;;6.13;;
20713;SDS011;10518;50.742;4.226;2023-07-09T06:29:51;8.52;;;5.18;;
20713;SDS011;10518;50.742;4.226;2023-07-09T06:32:16;10.45;;;5.55;;
20713;SDS011;10518;50.742;4.226;2023-07-09T06:34:42;9.32;;;5.35;;
20713;SDS011;10518;50.742;4.226;2023-07-09T06:37:08;10.50;;;6.50;;
20713;SDS011;10518;50.742;4.226;2023-07-09T06:39:33;14.75;;;6.45;;
20713;SDS011;10518;50.742;4.226;2023-07-09T06:41:59;16.70;;;10.10;;
20713;SDS011;10518;50.742;4.226;2023-07-09T06:44:24;20.48;;;11.45;;
20713;SDS011;10518;50.742;4.226;2023-07-09T06:46:50;17.67;;;11.30;;
20713;SDS011;10518;50.742;4.226;2023-07-09T06:49:16;18.92;;;9.95;;
20713;SDS011;10518;50.742;4.226;2023-07-09T06:51:42;19.80;;;11.23;;
20713;SDS011;10518;50.742;4.226;2023-07-09T06:54:07;20.45;;;12.25;;
20713;SDS011;10518;50.742;4.226;2023-07-09T06:56:34;22.38;;;11.85;;
20713;SDS011;10518;50.742;4.226;2023-07-09T06:58:59;20.05;;;13.02;;
20713;SDS011;10518;50.742;4.226;2023-07-09T07:01:25;24.45;;;14.20;;
20713;SDS011;10518;50.742;4.226;2023-07-09T07:03:50;24.77;;;14.50;;
20713;SDS011;10518;50.742;4.226;2023-07-09T07:06:16;23.73;;;14.43;;
20713;SDS011;10518;50.742;4.226;2023-07-09T07:08:42;26.23;;;15.27;;
20713;SDS011;10518;50.742;4.226;2023-07-09T07:11:08;23.05;;;13.93;;
20713;SDS011;10518;50.742;4.226;2023-07-09T07:13:42;26.23;;;13.80;;
20713;SDS011;10518;50.742;4.226;2023-07-09T07:16:09;19.80;;;12.68;;
20713;SDS011;10518;50.742;4.226;2023-07-09T07:18:36;20.75;;;13.65;;
20713;SDS011;10518;50.742;4.226;2023-07-09T07:21:03;21.40;;;13.02;;
20713;SDS011;10518;50.742;4.226;2023-07-09T07:23:29;23.35;;;13.63;;
20713;SDS011;10518;50.742;4.226;2023-07-09T07:25:55;26.50;;;13.45;;
20713;SDS011;10518;50.742;4.226;2023-07-09T07:28:20;16.25;;;10.55;;
20713;SDS011;10518;50.742;4.226;2023-07-09T07:30:46;18.42;;;11.10;;
20713;SDS011;10518;50.742;4.226;2023-07-09T07:33:22;19.95;;;11.15;;
20713;SDS011;10518;50.742;4.226;2023-07-09T07:35:47;17.40;;;11.40;;
20713;SDS011;10518;50.742;4.226;2023-07-09T07:38:13;19.63;;;11.73;;
20713;SDS011;10518;50.742;4.226;2023-07-09T07:40:38;29.40;;;11.10;;
20713;SDS011;10518;50.742;4.226;2023-07-09T07:43:04;19.92;;;10.15;;
20713;SDS011;10518;50.742;4.226;2023-07-09T07:45:29;21.38;;;11.77;;
20713;SDS011;10518;50.742;4.226;2023-07-09T07:47:55;19.52;;;11.25;;
20713;SDS011;10518;50.742;4.226;2023-07-09T07:50:20;20.23;;;10.63;;
20713;SDS011;10518;50.742;4.226;2023-07-09T07:52:46;18.40;;;10.75;;
20713;SDS011;10518;50.742;4.226;2023-07-09T07:55:12;19.13;;;10.30;;
20713;SDS011;10518;50.742;4.226;2023-07-09T07:57:37;19.17;;;11.52;;
20713;SDS011;10518;50.742;4.226;2023-07-09T08:00:03;17.98;;;10.38;;
20713;SDS011;10518;50.742;4.226;2023-07-09T08:02:29;19.15;;;12.13;;
20713;SDS011;10518;50.742;4.226;2023-07-09T08:04:55;19.20;;;11.02;;
20713;SDS011;10518;50.742;4.226;2023-07-09T08:07:20;20.20;;;11.43;;
20713;SDS011;10518;50.742;4.226;2023-07-09T08:09:46;18.35;;;10.82;;
20713;SDS011;10518;50.742;4.226;2023-07-09T08:12:12;16.15;;;9.63;;
20713;SDS011;10518;50.742;4.226;2023-07-09T08:14:39;12.88;;;8.18;;
20713;SDS011;10518;50.742;4.226;2023-07-09T08:17:06;15.55;;;9.50;;
20713;SDS011;10518;50.742;4.226;2023-07-09T08:19:32;14.73;;;8.95;;
20713;SDS011;10518;50.742;4.226;2023-07-09T08:22:12;11.50;;;7.38;;
20713;SDS011;10518;50.742;4.226;2023-07-09T08:24:38;11.63;;;6.18;;
20713;SDS011;10518;50.742;4.226;2023-07-09T08:27:05;13.38;;;8.25;;
20713;SDS011;10518;50.742;4.226;2023-07-09T08:29:32;13.55;;;7.10;;
20713;SDS011;10518;50.742;4.226;2023-07-09T08:31:57;14.75;;;7.05;;
20713;SDS011;10518;50.742;4.226;2023-07-09T08:34:23;12.00;;;6.03;;
20713;SDS011;10518;50.742;4.226;2023-07-09T08:36:48;13.40;;;6.40;;
20713;SDS011;10518;50.742;4.226;2023-07-09T08:39:14;12.52;;;6.88;;
20713;SDS011;10518;50.742;4.226;2023-07-09T08:41:45;10.68;;;6.07;;
20713;SDS011;10518;50.742;4.226;2023-07-09T08:45:04;10.15;;;6.50;;
20713;SDS011;10518;50.742;4.226;2023-07-09T08:50:09;8.68;;;5.25;;
20713;SDS011;10518;50.742;4.226;2023-07-09T08:52:42;11.77;;;6.38;;
20713;SDS011;10518;50.742;4.226;2023-07-09T08:57:37;8.48;;;5.38;;
20713;SDS011;10518;50.742;4.226;2023-07-09T09:00:28;8.98;;;4.68;;
20713;SDS011;10518;50.742;4.226;2023-07-09T09:02:58;13.35;;;4.93;;
20713;SDS011;10518;50.742;4.226;2023-07-09T09:05:27;9.48;;;5.00;;
20713;SDS011;10518;50.742;4.226;2023-07-09T09:07:59;8.60;;;5.35;;
20713;SDS011;10518;50.742;4.226;2023-07-09T09:10:33;9.13;;;4.57;;
20713;SDS011;10518;50.742;4.226;2023-07-09T09:13:13;10.02;;;5.53;;
20713;SDS011;10518;50.742;4.226;2023-07-09T09:15:44;8.48;;;5.55;;
20713;SDS011;10518;50.742;4.226;2023-07-09T09:18:27;8.88;;;5.25;;
20713;SDS011;10518;50.742;4.226;2023-07-09T09:21:24;12.35;;;6.30;;
20713;SDS011;10518;50.742;4.226;2023-07-09T09:23:58;10.60;;;5.38;;
20713;SDS011;10518;50.742;4.226;2023-07-09T09:26:38;9.32;;;5.45;;
20713;SDS011;10518;50.742;4.226;2023-07-09T09:29:10;8.30;;;4.78;;
20713;SDS011;10518;50.742;4.226;2023-07-09T09:31:37;8.35;;;4.65;;
20713;SDS011;10518;50.742;4.226;2023-07-09T09:34:03;11.60;;;5.75;;
20713;SDS011;10518;50.742;4.226;2023-07-09T09:36:30;11.50;;;6.32;;
20713;SDS011;10518;50.742;4.226;2023-07-09T09:39:01;7.80;;;5.13;;
20713;SDS011;10518;50.742;4.226;2023-07-09T09:41:36;7.20;;;4.40;;
20713;SDS011;10518;50.742;4.226;2023-07-09T09:44:02;9.73;;;5.75;;
20713;SDS011;10518;50.742;4.226;2023-07-09T09:46:31;6.65;;;4.97;;
20713;SDS011;10518;50.742;4.226;2023-07-09T09:49:00;12.15;;;6.32;;
20713;SDS011;10518;50.742;4.226;2023-07-09T09:51:28;12.35;;;6.38;;
20713;SDS011;10518;50.742;4.226;2023-07-09T09:53:58;14.75;;;7.43;;
20713;SDS011;10518;50.742;4.226;2023-07-09T09:56:29;14.07;;;6.25;;
20713;SDS011;10518;50.742;4.226;2023-07-09T09:58:59;12.27;;;5.90;;
20713;SDS011;10518;50.742;4.226;2023-07-09T10:01:26;10.95;;;5.45;;
20713;SDS011;10518;50.742;4.226;2023-07-09T10:03:55;12.55;;;5.65;;
20713;SDS011;10518;50.742;4.226;2023-07-09T10:06:35;8.50;;;5.40;;
20713;SDS011;10518;50.742;4.226;2023-07-09T10:11:50;12.43;;;5.88;;
20713;SDS011;10518;50.742;4.226;2023-07-09T10:14:34;11.13;;;5.53;;
20713;SDS011;10518;50.742;4.226;2023-07-09T10:17:23;7.28;;;4.78;;
20713;SDS011;10518;50.742;4.226;2023-07-09T10:20:15;9.13;;;5.22;;
20713;SDS011;10518;50.742;4.226;2023-07-09T10:23:22;9.40;;;5.15;;
20713;SDS011;10518;50.742;4.226;2023-07-09T10:26:11;8.40;;;4.78;;
20713;SDS011;10518;50.742;4.226;2023-07-09T10:39:53;9.18;;;5.15;;
20713;SDS011;10518;50.742;4.226;2023-07-09T10:44:55;6.82;;;3.75;;
20713;SDS011;10518;50.742;4.226;2023-07-09T10:49:53;6.82;;;3.63;;
20713;SDS011;10518;50.742;4.226;2023-07-09T10:52:32;5.28;;;3.20;;
20713;SDS011;10518;50.742;4.226;2023-07-09T10:55:15;8.30;;;4.35;;
20713;SDS011;10518;50.742;4.226;2023-07-09T11:00:22;6.15;;;2.55;;
20713;SDS011;10518;50.742;4.226;2023-07-09T11:02:59;4.18;;;2.50;;
20713;SDS011;10518;50.742;4.226;2023-07-09T11:05:28;3.45;;;2.65;;
20713;SDS011;10518;50.742;4.226;2023-07-09T11:10:30;4.47;;;2.63;;
20713;SDS011;10518;50.742;4.226;2023-07-09T11:15:37;5.30;;;2.38;;
20713;SDS011;10518;50.742;4.226;2023-07-09T11:18:06;3.80;;;2.42;;
20713;SDS011;10518;50.742;4.226;2023-07-09T11:20:36;4.38;;;2.50;;
20713;SDS011;10518;50.742;4.226;2023-07-09T11:23:16;4.53;;;3.00;;
20713;SDS011;10518;50.742;4.226;2023-07-09T11:25:45;3.85;;;2.00;;
20713;SDS011;10518;50.742;4.226;2023-07-09T11:28:13;3.00;;;2.67;;
20713;SDS011;10518;50.742;4.226;2023-07-09T11:31:16;4.45;;;2.25;;
20713;SDS011;10518;50.742;4.226;2023-07-09T11:33:32;3.45;;;2.25;;
20713;SDS011;10518;50.742;4.226;2023-07-09T11:38:41;2.53;;;1.77;;
20713;SDS011;10518;50.742;4.226;2023-07-09T11:41:25;3.35;;;2.13;;
20713;SDS011;10518;50.742;4.226;2023-07-09T11:44:14;4.43;;;2.00;;
20713;SDS011;10518;50.742;4.226;2023-07-09T11:49:24;5.03;;;2.58;;
20713;SDS011;10518;50.742;4.226;2023-07-09T11:52:10;4.97;;;2.30;;
20713;SDS011;10518;50.742;4.226;2023-07-09T11:54:36;3.55;;;2.17;;
20713;SDS011;10518;50.742;4.226;2023-07-09T11:57:02;7.78;;;2.30;;
20713;SDS011;10518;50.742;4.226;2023-07-09T11:59:28;3.30;;;1.95;;
20713;SDS011;10518;50.742;4.226;2023-07-09T12:01:54;2.40;;;1.77;;
20713;SDS011;10518;50.742;4.226;2023-07-09T12:04:25;5.72;;;2.53;;
20713;SDS011;10518;50.742;4.226;2023-07-09T12:06:57;2.78;;;2.08;;
20713;SDS011;10518;50.742;4.226;2023-07-09T12:09:30;5.18;;;2.38;;
20713;SDS011;10518;50.742;4.226;2023-07-09T12:12:04;6.05;;;1.98;;
20713;SDS011;10518;50.742;4.226;2023-07-09T12:14:41;3.95;;;2.38;;
20713;SDS011;10518;50.742;4.226;2023-07-09T12:17:07;3.35;;;2.28;;
20713;SDS011;10518;50.742;4.226;2023-07-09T12:19:34;4.72;;;2.50;;
20713;SDS011;10518;50.742;4.226;2023-07-09T12:21:59;4.55;;;2.42;;
20713;SDS011;10518;50.742;4.226;2023-07-09T12:24:26;2.42;;;1.63;;
20713;SDS011;10518;50.742;4.226;2023-07-09T12:26:55;5.25;;;2.60;;
20713;SDS011;10518;50.742;4.226;2023-07-09T12:29:30;3.60;;;2.10;;
20713;SDS011;10518;50.742;4.226;2023-07-09T12:32:02;4.50;;;2.83;;
20713;SDS011;10518;50.742;4.226;2023-07-09T12:34:35;4.00;;;2.67;;
20713;SDS011;10518;50.742;4.226;2023-07-09T12:37:00;4.32;;;2.58;;
20713;SDS011;10518;50.742;4.226;2023-07-09T12:39:27;8.48;;;2.03;;
20713;SDS011;10518;50.742;4.226;2023-07-09T12:41:58;6.43;;;2.63;;
20713;SDS011;10518;50.742;4.226;2023-07-09T12:44:26;5.53;;;2.58;;
20713;SDS011;10518;50.742;4.226;2023-07-09T12:46:53;5.22;;;2.47;;
20713;SDS011;10518;50.742;4.226;2023-07-09T12:49:23;4.03;;;2.85;;
20713;SDS011;10518;50.742;4.226;2023-07-09T12:51:51;8.38;;;2.90;;
20713;SDS011;10518;50.742;4.226;2023-07-09T12:54:22;4.43;;;2.65;;
20713;SDS011;10518;50.742;4.226;2023-07-09T12:56:54;3.95;;;2.28;;
20713;SDS011;10518;50.742;4.226;2023-07-09T13:02:02;5.55;;;2.50;;
20713;SDS011;10518;50.742;4.226;2023-07-09T13:04:31;6.68;;;2.80;;
20713;SDS011;10518;50.742;4.226;2023-07-09T13:06:58;5.43;;;2.60;;
20713;SDS011;10518;50.742;4.226;2023-07-09T13:09:24;9.07;;;3.00;;
20713;SDS011;10518;50.742;4.226;2023-07-09T13:11:51;6.47;;;2.47;;
20713;SDS011;10518;50.742;4.226;2023-07-09T13:14:18;4.80;;;2.72;;
20713;SDS011;10518;50.742;4.226;2023-07-09T13:17:05;4.18;;;2.85;;
20713;SDS011;10518;50.742;4.226;2023-07-09T13:19:32;4.53;;;2.60;;
20713;SDS011;10518;50.742;4.226;2023-07-09T13:21:58;5.25;;;2.67;;
20713;SDS011;10518;50.742;4.226;2023-07-09T13:24:25;4.63;;;2.75;;
20713;SDS011;10518;50.742;4.226;2023-07-09T13:26:54;11.40;;;2.90;;
20713;SDS011;10518;50.742;4.226;2023-07-09T13:29:24;9.40;;;2.85;;
20713;SDS011;10518;50.742;4.226;2023-07-09T13:31:50;7.63;;;3.10;;
20713;SDS011;10518;50.742;4.226;2023-07-09T13:36:46;6.68;;;3.28;;
20713;SDS011;10518;50.742;4.226;2023-07-09T13:39:12;4.97;;;2.60;;
20713;SDS011;10518;50.742;4.226;2023-07-09T13:41:43;3.33;;;2.05;;
20713;SDS011;10518;50.742;4.226;2023-07-09T13:44:11;6.50;;;3.20;;
20713;SDS011;10518;50.742;4.226;2023-07-09T13:46:39;3.35;;;2.38;;
20713;SDS011;10518;50.742;4.226;2023-07-09T13:49:08;4.45;;;2.45;;
20713;SDS011;10518;50.742;4.226;2023-07-09T13:51:35;4.57;;;2.92;;
20713;SDS011;10518;50.742;4.226;2023-07-09T13:54:01;4.60;;;2.83;;
20713;SDS011;10518;50.742;4.226;2023-07-09T13:56:28;4.25;;;2.78;;
20713;SDS011;10518;50.742;4.226;2023-07-09T13:58:54;7.10;;;3.38;;
20713;SDS011;10518;50.742;4.226;2023-07-09T14:01:21;5.20;;;3.05;;
20713;SDS011;10518;50.742;4.226;2023-07-09T14:03:48;5.72;;;2.63;;
20713;SDS011;10518;50.742;4.226;2023-07-09T14:06:14;6.70;;;2.53;;
20713;SDS011;10518;50.742;4.226;2023-07-09T14:08:42;7.13;;;2.55;;
20713;SDS011;10518;50.742;4.226;2023-07-09T14:11:11;7.32;;;2.40;;
20713;SDS011;10518;50.742;4.226;2023-07-09T14:13:38;5.45;;;2.22;;
20713;SDS011;10518;50.742;4.226;2023-07-09T14:16:04;4.32;;;2.70;;
20713;SDS011;10518;50.742;4.226;2023-07-09T14:18:31;3.95;;;2.30;;
20713;SDS011;10518;50.742;4.226;2023-07-09T14:20:56;4.68;;;2.80;;
20713;SDS011;10518;50.742;4.226;2023-07-09T14:23:22;5.18;;;3.08;;
20713;SDS011;10518;50.742;4.226;2023-07-09T14:25:48;5.10;;;2.40;;
20713;SDS011;10518;50.742;4.226;2023-07-09T14:28:15;6.28;;;2.85;;
20713;SDS011;10518;50.742;4.226;2023-07-09T14:30:42;4.40;;;2.50;;
20713;SDS011;10518;50.742;4.226;2023-07-09T14:33:14;4.28;;;2.50;;
20713;SDS011;10518;50.742;4.226;2023-07-09T14:35:41;3.97;;;2.55;;
20713;SDS011;10518;50.742;4.226;2023-07-09T14:38:25;4.88;;;2.63;;
20713;SDS011;10518;50.742;4.226;2023-07-09T14:40:52;3.28;;;2.50;;
20713;SDS011;10518;50.742;4.226;2023-07-09T14:43:20;3.55;;;2.33;;
20713;SDS011;10518;50.742;4.226;2023-07-09T14:45:47;5.78;;;3.13;;
20713;SDS011;10518;50.742;4.226;2023-07-09T14:48:18;3.85;;;2.50;;
20713;SDS011;10518;50.742;4.226;2023-07-09T14:50:44;5.70;;;2.63;;
20713;SDS011;10518;50.742;4.226;2023-07-09T14:53:14;4.80;;;2.70;;
20713;SDS011;10518;50.742;4.226;2023-07-09T14:55:49;6.95;;;2.40;;
20713;SDS011;10518;50.742;4.226;2023-07-09T14:58:19;5.25;;;2.75;;
20713;SDS011;10518;50.742;4.226;2023-07-09T15:00:46;2.53;;;1.90;;
20713;SDS011;10518;50.742;4.226;2023-07-09T15:03:19;3.63;;;2.25;;
20713;SDS011;10518;50.742;4.226;2023-07-09T15:05:47;5.97;;;2.75;;
20713;SDS011;10518;50.742;4.226;2023-07-09T15:08:14;7.55;;;2.90;;
20713;SDS011;10518;50.742;4.226;2023-07-09T15:10:43;6.35;;;2.28;;
20713;SDS011;10518;50.742;4.226;2023-07-09T15:13:16;5.43;;;2.50;;
20713;SDS011;10518;50.742;4.226;2023-07-09T15:15:43;5.47;;;2.33;;
20713;SDS011;10518;50.742;4.226;2023-07-09T15:18:11;4.00;;;2.15;;
20713;SDS011;10518;50.742;4.226;2023-07-09T15:20:38;3.53;;;2.78;;
20713;SDS011;10518;50.742;4.226;2023-07-09T15:23:04;5.05;;;2.42;;
20713;SDS011;10518;50.742;4.226;2023-07-09T15:25:30;4.30;;;2.35;;
20713;SDS011;10518;50.742;4.226;2023-07-09T15:27:56;4.88;;;2.75;;
20713;SDS011;10518;50.742;4.226;2023-07-09T15:30:23;4.22;;;2.60;;
20713;SDS011;10518;50.742;4.226;2023-07-09T15:32:50;4.43;;;2.53;;
20713;SDS011;10518;50.742;4.226;2023-07-09T15:35:17;4.90;;;2.78;;
20713;SDS011;10518;50.742;4.226;2023-07-09T15:37:43;3.95;;;2.80;;
20713;SDS011;10518;50.742;4.226;2023-07-09T15:40:16;3.83;;;2.60;;
20713;SDS011;10518;50.742;4.226;2023-07-09T15:42:47;4.00;;;2.55;;